AFL2535 UIII-UNTT
Flight info
| Callsign | AFL2535 |
|---|---|
| Flight time | N/A |
| Altitude | 38000 |
| Route | BOGRA4D BOGRA A815 TUTEK A91 SUKOR A817 RO/K0689F260 A229 ROTLI A300 BINBA BINBA1K |
| Aircraft | A20N/M-SDE2E3FGHIRWXY/LB1 |
Departure
| Time | 2026-05-01 13:07 |
|---|---|
| Airport | Irkutsk International Airport (UIII) |
Arrival
| Time | N/A |
|---|---|
| Airport | Tomsk Kamov Airport (UNTT) |
| Time | Latitude | Longitude | Altitude | Speed | Heading |
|---|---|---|---|---|---|
| 2026-05-01 12:25 | 52.27222 | 104.35528 | 1584 ft | 0 kts | 86° |
| 2026-05-01 12:55 | 52.27223 | 104.35535 | 1584 ft | 2 kts | 86° |
| 2026-05-01 12:55 | 52.27217 | 104.35580 | 1584 ft | 5 kts | 124° |
| 2026-05-01 12:55 | 52.27214 | 104.35583 | 1584 ft | 0 kts | 135° |
| 2026-05-01 12:56 | 52.27207 | 104.35595 | 1584 ft | 5 kts | 138° |
| 2026-05-01 12:56 | 52.27155 | 104.35619 | 1584 ft | 7 kts | 137° |
| 2026-05-01 12:57 | 52.27151 | 104.35730 | 1584 ft | 14 kts | 86° |
| 2026-05-01 12:57 | 52.27184 | 104.36147 | 1584 ft | 23 kts | 87° |
| 2026-05-01 12:57 | 52.27152 | 104.36414 | 1584 ft | 25 kts | 109° |
| 2026-05-01 12:58 | 52.27088 | 104.36693 | 1585 ft | 27 kts | 110° |
| 2026-05-01 12:58 | 52.27023 | 104.36978 | 1590 ft | 27 kts | 110° |
| 2026-05-01 12:58 | 52.26997 | 104.37230 | 1596 ft | 21 kts | 78° |
| 2026-05-01 12:59 | 52.26903 | 104.37655 | 1607 ft | 20 kts | 113° |
| 2026-05-01 12:59 | 52.26846 | 104.37867 | 1610 ft | 20 kts | 114° |
| 2026-05-01 12:59 | 52.26731 | 104.38298 | 1620 ft | 21 kts | 113° |
| 2026-05-01 13:00 | 52.26614 | 104.38738 | 1630 ft | 21 kts | 113° |
| 2026-05-01 13:00 | 52.26556 | 104.38960 | 1634 ft | 21 kts | 114° |
| 2026-05-01 13:01 | 52.26437 | 104.39409 | 1645 ft | 22 kts | 114° |
| 2026-05-01 13:01 | 52.26377 | 104.39635 | 1650 ft | 22 kts | 113° |
| 2026-05-01 13:01 | 52.26256 | 104.40089 | 1665 ft | 22 kts | 113° |
| 2026-05-01 13:02 | 52.26196 | 104.40314 | 1674 ft | 21 kts | 113° |
| 2026-05-01 13:07 | 52.26915 | 104.38706 | 1753 ft | 177 kts | 294° |
| 2026-05-01 13:07 | 52.27476 | 104.36707 | 2254 ft | 212 kts | 296° |
| 2026-05-01 13:07 | 52.28166 | 104.34369 | 2977 ft | 244 kts | 298° |
| 2026-05-01 13:08 | 52.28985 | 104.31789 | 3878 ft | 265 kts | 300° |
| 2026-05-01 13:08 | 52.29785 | 104.29084 | 5288 ft | 258 kts | 299° |
| 2026-05-01 13:08 | 52.30815 | 104.26764 | 6736 ft | 253 kts | 318° |
| 2026-05-01 13:08 | 52.32322 | 104.25298 | 7823 ft | 256 kts | 338° |
| 2026-05-01 13:09 | 52.33990 | 104.24309 | 8973 ft | 256 kts | 339° |
| 2026-05-01 13:09 | 52.35678 | 104.23371 | 10106 ft | 257 kts | 339° |
| 2026-05-01 13:09 | 52.37420 | 104.22415 | 10763 ft | 275 kts | 339° |
| 2026-05-01 13:09 | 52.39309 | 104.21367 | 11167 ft | 298 kts | 339° |
| 2026-05-01 13:10 | 52.41331 | 104.20240 | 11775 ft | 312 kts | 340° |
| 2026-05-01 13:10 | 52.43398 | 104.19091 | 12693 ft | 316 kts | 340° |
| 2026-05-01 13:10 | 52.45493 | 104.17925 | 13586 ft | 320 kts | 340° |
| 2026-05-01 13:10 | 52.47615 | 104.16739 | 14436 ft | 323 kts | 340° |
| 2026-05-01 13:11 | 52.49747 | 104.15546 | 15318 ft | 325 kts | 340° |
| 2026-05-01 13:11 | 52.51893 | 104.14342 | 16162 ft | 327 kts | 340° |
| 2026-05-01 13:11 | 52.54049 | 104.13130 | 17017 ft | 329 kts | 340° |
| 2026-05-01 13:11 | 52.56224 | 104.11905 | 17855 ft | 331 kts | 340° |
| 2026-05-01 13:12 | 52.58411 | 104.10674 | 18647 ft | 333 kts | 340° |
| 2026-05-01 13:12 | 52.60609 | 104.09435 | 19388 ft | 334 kts | 340° |
| 2026-05-01 13:12 | 52.62815 | 104.08189 | 19920 ft | 336 kts | 340° |
| 2026-05-01 13:12 | 52.65032 | 104.06937 | 20102 ft | 337 kts | 340° |
| 2026-05-01 13:13 | 52.67250 | 104.05682 | 20148 ft | 337 kts | 340° |
| 2026-05-01 13:13 | 52.69469 | 104.04427 | 20151 ft | 337 kts | 340° |
| 2026-05-01 13:13 | 52.71691 | 104.03169 | 20153 ft | 337 kts | 340° |
| 2026-05-01 13:13 | 52.73908 | 104.01912 | 20153 ft | 337 kts | 340° |
| 2026-05-01 13:14 | 52.76126 | 104.00653 | 20152 ft | 337 kts | 340° |
| 2026-05-01 13:14 | 52.78345 | 103.99392 | 20148 ft | 337 kts | 340° |